Time;durP1;ratioP1;P1;durP2;ratioP2;P2;SDS_P1;SDS_P2;PMS_P1;PMS_P2;Temp;Humidity;BMP_temperature;BMP_pressure;BME280_temperature;BME280_humidity;BME280_pressure;Samples;Min_cycle;Max_cycle;Signal;HPM_P1;HPM_P2
2022/02/27 00:02:14;;;;;;;20.77;12.52;;;;;;;0.42;71.16;102820.84;5037133;28;20116;-22
2022/02/27 00:04:39;;;;;;;21.75;11.57;;;;;;;0.41;71.67;102826.84;5043120;28;20479;-22
2022/02/27 00:07:05;;;;;;;14.65;10.77;;;;;;;0.39;71.48;102818.03;5041690;28;20025;-21
2022/02/27 00:09:30;;;;;;;14.82;11.02;;;;;;;0.36;71.11;102816.16;5047838;28;20029;-22
2022/02/27 00:11:56;;;;;;;19.85;12.02;;;;;;;0.36;71.23;102813.56;5037202;28;20033;-22
2022/02/27 00:14:22;;;;;;;17.25;10.65;;;;;;;0.34;71.44;102806.47;5043586;28;20028;-20
2022/02/27 00:16:47;;;;;;;17.23;12.52;;;;;;;0.34;71.44;102824.63;5037228;28;20028;-22
2022/02/27 00:19:13;;;;;;;17.75;10.60;;;;;;;0.34;71.50;102806.47;5043787;28;20025;-22
2022/02/27 00:21:39;;;;;;;17.63;11.60;;;;;;;0.32;71.11;102813.22;5035690;28;20513;-22
2022/02/27 00:24:05;;;;;;;16.88;11.30;;;;;;;0.30;71.11;102814.84;5035385;28;20036;-22
2022/02/27 00:26:30;;;;;;;14.65;11.35;;;;;;;0.27;71.25;102810.34;5032647;28;20013;-22
2022/02/27 00:28:56;;;;;;;20.23;10.30;;;;;;;0.27;71.03;102810.34;5033266;28;20029;-22
2022/02/27 00:31:21;;;;;;;15.93;10.85;;;;;;;0.26;71.44;102808.53;5033866;28;20037;-22
2022/02/27 00:33:47;;;;;;;14.65;10.77;;;;;;;0.24;71.40;102807.53;5035747;28;20854;-22
2022/02/27 00:36:12;;;;;;;11.70;9.65;;;;;;;0.21;71.20;102796.94;5034051;28;20036;-22
2022/02/27 00:38:37;;;;;;;14.43;10.98;;;;;;;0.20;71.24;102797.75;5036448;28;20504;-22
2022/02/27 00:41:03;;;;;;;16.25;9.63;;;;;;;0.17;71.30;102797.53;5032748;28;20025;-22
2022/02/27 00:43:28;;;;;;;11.48;9.35;;;;;;;0.15;71.19;102788.72;5031826;28;20060;-22
2022/02/27 00:45:53;;;;;;;12.90;9.45;;;;;;;0.15;70.72;102788.72;5030528;28;20027;-22
2022/02/27 00:48:19;;;;;;;13.05;9.52;;;;;;;0.11;71.07;102793.69;5034718;28;20025;-22
2022/02/27 00:50:44;;;;;;;14.50;9.23;;;;;;;0.10;70.83;102791.91;5034422;28;20037;-21
2022/02/27 00:53:10;;;;;;;14.57;10.60;;;;;;;0.07;71.15;102783.91;5022876;28;20120;-22
2022/02/27 00:55:35;;;;;;;13.25;10.73;;;;;;;0.06;71.04;102789.91;5026500;28;20542;-21
2022/02/27 00:58:01;;;;;;;15.85;9.95;;;;;;;0.05;70.69;102790.72;5028195;28;20034;-22
2022/02/27 01:00:27;;;;;;;12.93;10.45;;;;;;;0.03;70.61;102789.69;5033916;28;20033;-22
2022/02/27 01:02:52;;;;;;;15.95;11.35;;;;;;;-0.01;70.60;102782.50;5030926;28;20033;-21
2022/02/27 01:05:18;;;;;;;13.95;10.07;;;;;;;-0.04;71.21;102782.28;5033979;28;20061;-22
2022/02/27 01:07:43;;;;;;;15.88;10.52;;;;;;;-0.04;70.96;102783.19;5034486;28;20033;-21
2022/02/27 01:10:09;;;;;;;15.32;10.75;;;;;;;-0.07;70.96;102790.75;5023550;28;20092;-22
2022/02/27 01:12:35;;;;;;;14.93;10.55;;;;;;;-0.09;70.85;102786.25;5025283;28;20039;-22
2022/02/27 01:15:00;;;;;;;16.58;10.27;;;;;;;-0.11;70.60;102786.16;5034658;28;20029;-22
2022/02/27 01:17:25;;;;;;;14.27;9.98;;;;;;;-0.12;71.25;102789.53;5046135;28;20029;-22
2022/02/27 01:19:51;;;;;;;13.48;9.95;;;;;;;-0.14;71.31;102798.91;5040958;28;20032;-23
2022/02/27 01:22:16;;;;;;;14.85;10.50;;;;;;;-0.17;71.07;102791.81;5035952;28;20041;-22
2022/02/27 01:24:41;;;;;;;19.92;10.15;;;;;;;-0.20;70.96;102790.72;5032245;28;20018;-22
2022/02/27 01:27:07;;;;;;;11.07;9.85;;;;;;;-0.20;70.79;102804.56;5032403;28;20522;-22
2022/02/27 01:29:33;;;;;;;13.80;9.40;;;;;;;-0.24;70.79;102802.56;5033286;28;20027;-21
2022/02/27 01:31:59;;;;;;;13.65;9.70;;;;;;;-0.24;71.30;102805.16;5031575;28;20029;-22
2022/02/27 01:34:24;;;;;;;13.40;9.95;;;;;;;-0.27;71.13;102807.53;5031779;28;20033;-22
2022/02/27 01:36:49;;;;;;;14.48;9.70;;;;;;;-0.30;71.04;102800.44;5033058;28;20352;-21
2022/02/27 01:39:15;;;;;;;13.60;8.82;;;;;;;-0.32;70.78;102809.81;5032297;28;20439;-22
2022/02/27 01:41:40;;;;;;;12.52;9.35;;;;;;;-0.33;71.19;102815.75;5029561;28;20037;-23
2022/02/27 01:44:06;;;;;;;13.02;9.70;;;;;;;-0.37;71.16;102808.56;5033880;28;20036;-22
2022/02/27 01:46:34;;;;;;;11.77;9.05;;;;;;;-0.40;71.03;102800.59;5030410;28;20075;-22
2022/02/27 01:48:59;;;;;;;12.35;9.30;;;;;;;-0.42;71.15;102800.50;5029787;28;20085;-22
2022/02/27 01:51:25;;;;;;;13.50;9.90;;;;;;;-0.45;70.99;102810.63;5029624;28;20112;-22
2022/02/27 01:53:50;;;;;;;11.82;9.50;;;;;;;-0.45;70.54;102804.53;5032336;28;20396;-21
2022/02/27 01:56:17;;;;;;;13.15;9.35;;;;;;;-0.48;71.00;102810.41;5031349;28;20029;-20
2022/02/27 01:58:42;;;;;;;11.00;8.60;;;;;;;-0.53;71.30;102807.47;5031517;28;20352;-22
2022/02/27 02:01:07;;;;;;;12.82;8.95;;;;;;;-0.52;70.65;102811.00;5030060;28;20036;-21
2022/02/27 02:03:33;;;;;;;14.48;9.38;;;;;;;-0.54;71.28;102808.28;5029959;28;21974;-22
2022/02/27 02:05:58;;;;;;;11.20;8.60;;;;;;;-0.56;71.25;102816.75;5031200;28;20033;-22
2022/02/27 02:08:23;;;;;;;12.68;9.25;;;;;;;-0.59;70.78;102808.75;5031552;28;20026;-22
2022/02/27 02:10:49;;;;;;;11.98;9.73;;;;;;;-0.61;70.79;102808.63;5028381;28;20028;-22
2022/02/27 02:13:14;;;;;;;14.15;8.60;;;;;;;-0.66;71.01;102808.28;5030896;28;20040;-22
2022/02/27 02:15:39;;;;;;;11.88;8.57;;;;;;;-0.66;70.85;102807.41;5031040;28;20105;-22
2022/02/27 02:18:09;;;;;;;14.05;10.27;;;;;;;-0.68;70.93;102803.81;5032527;28;20068;-23
2022/02/27 02:20:35;;;;;;;11.15;8.93;;;;;;;-0.70;70.81;102805.41;5026299;28;20468;-22
2022/02/27 02:23:01;;;;;;;13.93;9.88;;;;;;;-0.73;70.99;102803.47;5025835;28;20037;-22
2022/02/27 02:25:26;;;;;;;11.70;9.27;;;;;;;-0.75;71.14;102792.09;5032078;28;20469;-22
2022/02/27 02:27:51;;;;;;;14.45;9.60;;;;;;;-0.77;70.82;102796.25;5026349;28;20039;-22
2022/02/27 02:30:17;;;;;;;11.10;9.20;;;;;;;-0.79;70.78;102798.78;5022417;28;20025;-20
2022/02/27 02:32:56;;;;;;;13.73;9.10;;;;;;;-0.80;70.70;102801.25;5030946;28;20032;-22
2022/02/27 02:35:27;;;;;;;15.07;8.95;;;;;;;-0.82;70.64;102803.72;5029781;28;20025;-22
2022/02/27 02:37:53;;;;;;;13.10;9.00;;;;;;;-0.86;70.88;102790.44;5030743;28;20037;-22
2022/02/27 02:40:22;;;;;;;14.63;8.40;;;;;;;-0.88;70.85;102792.91;5018660;28;20037;-22
2022/02/27 02:42:47;;;;;;;12.07;9.13;;;;;;;-0.90;70.37;102789.31;5023560;28;20033;-22
2022/02/27 02:45:13;;;;;;;10.77;8.23;;;;;;;-0.91;70.49;102796.19;5021714;28;20391;-22
2022/02/27 02:47:40;;;;;;;14.20;8.63;;;;;;;-0.94;70.51;102793.38;5024946;28;20111;-21
2022/02/27 02:50:06;;;;;;;13.85;8.63;;;;;;;-0.97;70.80;102777.59;5031438;28;20025;-22
2022/02/27 02:52:31;;;;;;;12.68;9.07;;;;;;;-0.97;70.99;102808.69;5030776;28;21233;-22
2022/02/27 02:54:57;;;;;;;11.18;8.40;;;;;;;-0.99;70.72;102794.72;5030240;28;20024;-22
2022/02/27 02:57:22;;;;;;;13.35;8.82;;;;;;;-1.00;71.21;102792.03;5025529;28;20538;-22
2022/02/27 02:59:47;;;;;;;10.98;8.35;;;;;;;-1.03;71.01;102792.72;5027313;28;20049;-22
2022/02/27 03:02:13;;;;;;;14.07;8.73;;;;;;;-1.05;70.62;102800.38;5029021;28;20032;-21
2022/02/27 03:04:38;;;;;;;14.15;9.18;;;;;;;-1.07;71.06;102793.28;5030174;28;20087;-22
2022/02/27 03:07:04;;;;;;;13.93;8.98;;;;;;;-1.09;71.05;102787.06;5031047;28;20485;-22
2022/02/27 03:09:30;;;;;;;15.07;9.13;;;;;;;-1.12;70.88;102787.75;5028249;28;20095;-21
2022/02/27 03:11:55;;;;;;;13.15;8.32;;;;;;;-1.12;71.19;102786.84;5026919;28;20484;-22
2022/02/27 03:14:20;;;;;;;13.15;8.60;;;;;;;-1.17;71.21;102784.81;5027903;28;20433;-19
2022/02/27 03:16:46;;;;;;;13.18;9.82;;;;;;;-1.16;71.08;102780.53;5029026;28;20121;-22
2022/02/27 03:19:11;;;;;;;14.70;9.63;;;;;;;-1.19;70.83;102791.59;5031413;28;20029;-22
2022/02/27 03:21:38;;;;;;;11.15;9.07;;;;;;;-1.21;71.33;102787.97;5030120;28;20128;-22
2022/02/27 03:24:04;;;;;;;13.40;9.07;;;;;;;-1.21;70.50;102794.81;5028156;28;20091;-21
2022/02/27 03:26:29;;;;;;;13.02;8.55;;;;;;;-1.33;70.93;102787.06;5029820;28;20034;-22
2022/02/27 03:28:54;;;;;;;12.15;8.63;;;;;;;-1.26;70.42;102797.09;5028953;28;20032;-23
2022/02/27 03:31:20;;;;;;;14.45;8.52;;;;;;;-1.29;70.73;102792.56;5024235;28;20476;-22
2022/02/27 03:33:45;;;;;;;13.35;9.07;;;;;;;-1.29;70.82;102799.44;5028692;28;20131;-21
2022/02/27 03:36:11;;;;;;;10.50;7.88;;;;;;;-1.31;71.02;102798.44;5023311;28;20029;-22
2022/02/27 03:38:37;;;;;;;13.07;9.73;;;;;;;-1.34;71.03;102800.78;5023236;28;20037;-22
2022/02/27 03:41:02;;;;;;;12.52;9.10;;;;;;;-1.35;70.73;102789.53;5020449;28;20450;-22
2022/02/27 03:43:27;;;;;;;12.68;9.13;;;;;;;-1.37;70.94;102792.81;5032040;28;20037;-21
2022/02/27 03:45:53;;;;;;;13.20;9.02;;;;;;;-1.38;70.59;102798.75;5020612;28;20238;-22
2022/02/27 03:48:18;;;;;;;12.43;8.95;;;;;;;-1.39;70.65;102796.97;5024154;28;20036;-22
2022/02/27 03:50:43;;;;;;;14.13;8.77;;;;;;;-1.40;71.16;102792.59;5022700;28;20361;-21
2022/02/27 03:53:09;;;;;;;13.10;8.85;;;;;;;-1.42;71.06;102792.47;5021761;28;20568;-22
2022/02/27 03:55:34;;;;;;;16.42;8.48;;;;;;;-1.46;70.61;102791.31;5026218;28;20026;-22
2022/02/27 03:58:00;;;;;;;9.52;8.07;;;;;;;-1.47;70.75;102794.69;5020658;28;20112;-22
2022/02/27 04:00:26;;;;;;;11.15;8.55;;;;;;;-1.48;70.57;102795.50;5019914;28;20406;-21
2022/02/27 04:02:52;;;;;;;14.35;9.27;;;;;;;-1.50;70.60;102793.59;5026694;28;20438;-24
2022/02/27 04:05:18;;;;;;;12.13;8.90;;;;;;;-1.49;70.76;102800.56;5028634;28;20527;-22
2022/02/27 04:07:43;;;;;;;11.32;8.10;;;;;;;-1.51;71.28;102803.03;5028121;28;20518;-22
2022/02/27 04:10:10;;;;;;;10.82;8.65;;;;;;;-1.53;70.73;102799.44;5026601;28;20029;-21
2022/02/27 04:12:35;;;;;;;10.70;8.63;;;;;;;-1.56;71.26;102800.06;5028758;28;20494;-22
2022/02/27 04:15:00;;;;;;;9.27;7.63;;;;;;;-1.56;71.14;102804.38;5027270;28;20112;-21
2022/02/27 04:17:26;;;;;;;10.52;8.10;;;;;;;-1.59;71.03;102806.72;5029344;28;20299;-22
2022/02/27 04:19:51;;;;;;;10.95;7.55;;;;;;;-1.61;71.04;102797.94;5030207;28;20029;-22
2022/02/27 04:22:17;;;;;;;11.65;8.00;;;;;;;-1.61;70.99;102800.53;5030086;28;20082;-19
2022/02/27 04:24:42;;;;;;;11.93;8.50;;;;;;;-1.63;70.91;102807.28;5026900;28;20546;-22
2022/02/27 04:27:07;;;;;;;11.88;8.13;;;;;;;-1.64;70.91;102800.31;5026288;28;20368;-21
2022/02/27 04:29:33;;;;;;;14.57;8.50;;;;;;;-1.65;71.19;102814.00;5028893;28;20177;-22
2022/02/27 04:31:58;;;;;;;13.15;8.00;;;;;;;-1.68;70.72;102815.59;5029778;28;20025;-21
2022/02/27 04:34:23;;;;;;;13.32;8.55;;;;;;;-1.69;70.97;102807.72;5031113;28;20025;-22
2022/02/27 04:36:49;;;;;;;13.25;8.55;;;;;;;-1.74;70.57;102802.19;5027281;28;20076;-22
2022/02/27 04:39:14;;;;;;;12.40;8.70;;;;;;;-1.73;71.14;102809.16;5030118;28;20061;-23
2022/02/27 04:41:40;;;;;;;11.95;8.98;;;;;;;-1.73;70.92;102814.34;5031818;28;20069;-23
2022/02/27 04:44:06;;;;;;;13.13;8.60;;;;;;;-1.75;71.00;102808.16;5030624;28;20021;-22
2022/02/27 04:46:31;;;;;;;12.63;8.60;;;;;;;-1.76;71.04;102816.72;5029689;28;20025;-22
2022/02/27 04:48:56;;;;;;;10.10;7.38;;;;;;;-1.78;71.01;102807.00;5031520;28;20100;-22
2022/02/27 04:51:22;;;;;;;10.25;7.75;;;;;;;-1.80;70.57;102809.50;5032148;28;20044;-21
2022/02/27 04:53:49;;;;;;;9.98;8.13;;;;;;;-1.80;70.68;102809.50;5031975;28;20029;-22
2022/02/27 04:56:14;;;;;;;13.25;8.68;;;;;;;-1.83;71.11;102810.16;5030575;28;20463;-22
2022/02/27 04:58:40;;;;;;;11.75;8.10;;;;;;;-1.83;71.26;102817.03;5031606;28;20044;-22
2022/02/27 05:01:05;;;;;;;14.93;7.97;;;;;;;-1.85;70.91;102821.16;5015436;28;20029;-22
2022/02/27 05:03:30;;;;;;;10.52;7.82;;;;;;;-1.87;70.70;102825.34;5033788;28;20033;-22
2022/02/27 05:05:56;;;;;;;11.55;7.90;;;;;;;-1.88;70.62;102827.00;5034761;28;20025;-22
2022/02/27 05:08:21;;;;;;;10.95;8.32;;;;;;;-1.91;70.55;102825.88;5030702;28;20026;-22
2022/02/27 05:10:47;;;;;;;11.18;6.75;;;;;;;-1.91;71.07;102828.47;5030774;28;20032;-21
2022/02/27 05:13:12;;;;;;;11.07;7.70;;;;;;;-1.94;70.66;102832.63;5028068;28;20044;-21
2022/02/27 05:15:37;;;;;;;8.93;7.47;;;;;;;-1.96;71.09;102834.16;5028035;28;20033;-21
2022/02/27 05:18:03;;;;;;;10.68;7.50;;;;;;;-1.96;71.26;102836.75;5021314;28;20029;-22
2022/02/27 05:20:28;;;;;;;12.80;8.63;;;;;;;-1.97;70.95;102841.84;5030855;28;20036;-22
2022/02/27 05:22:54;;;;;;;10.25;8.60;;;;;;;-1.99;70.67;102844.31;5034566;28;20037;-21
2022/02/27 05:25:21;;;;;;;10.70;8.25;;;;;;;-2.00;71.20;102832.13;5034816;28;20036;-22
2022/02/27 05:27:47;;;;;;;11.90;8.68;;;;;;;-2.01;70.78;102845.84;5048354;28;20120;-21
2022/02/27 05:30:14;;;;;;;13.07;9.27;;;;;;;-2.01;70.67;102845.84;5023805;28;20044;-23
2022/02/27 05:32:39;;;;;;;13.50;8.23;;;;;;;-2.03;71.21;102846.53;5022672;28;20022;-21
2022/02/27 05:35:05;;;;;;;10.48;7.93;;;;;;;-2.04;70.90;102849.91;5028708;28;20021;-20
2022/02/27 05:37:31;;;;;;;11.55;7.57;;;;;;;-2.05;71.04;102854.16;5027922;28;20025;-22
2022/02/27 05:39:57;;;;;;;13.40;8.75;;;;;;;-2.07;70.45;102850.53;5037371;28;20029;-22
2022/02/27 05:42:22;;;;;;;11.80;7.93;;;;;;;-2.08;71.15;102851.31;5029826;28;20025;-22
2022/02/27 05:44:47;;;;;;;11.93;8.20;;;;;;;-2.11;70.81;102854.59;5025738;28;20506;-22
2022/02/27 05:47:13;;;;;;;13.73;8.52;;;;;;;-2.10;71.02;102860.66;5020652;28;20144;-21
2022/02/27 05:49:38;;;;;;;10.35;8.57;;;;;;;-2.12;70.68;102865.72;5029950;28;20029;-21
2022/02/27 05:52:04;;;;;;;13.68;9.07;;;;;;;-2.12;70.79;102859.63;5035779;28;20488;-21
2022/02/27 05:54:29;;;;;;;11.30;9.07;;;;;;;-2.12;71.05;102872.56;5031744;28;20028;-21
2022/02/27 05:56:55;;;;;;;9.23;8.13;;;;;;;-2.13;71.03;102857.84;5036792;28;20067;-22
2022/02/27 05:59:20;;;;;;;12.55;8.30;;;;;;;-2.15;71.01;102867.13;5035958;28;20021;-22
2022/02/27 06:01:47;;;;;;;12.52;8.30;;;;;;;-2.15;70.75;102873.22;5034657;28;20024;-22
2022/02/27 06:04:12;;;;;;;10.75;8.07;;;;;;;-2.16;71.12;102876.59;5034974;28;20069;-22
2022/02/27 06:06:38;;;;;;;16.00;9.45;;;;;;;-2.17;70.61;102872.19;5035237;28;20123;-21
2022/02/27 06:09:03;;;;;;;11.80;8.80;;;;;;;-2.18;71.00;102872.97;5033054;28;20038;-22
2022/02/27 06:11:28;;;;;;;14.18;9.25;;;;;;;-2.19;70.89;102866.88;5031476;28;20028;-20
2022/02/27 06:13:54;;;;;;;12.68;7.88;;;;;;;-2.17;71.09;102868.72;5032630;28;20120;-22
2022/02/27 06:16:19;;;;;;;12.27;8.60;;;;;;;-2.16;71.20;102865.34;5034891;28;20027;-21
2022/02/27 06:18:44;;;;;;;15.10;8.93;;;;;;;-2.16;71.31;102870.50;5038016;28;20052;-23
2022/02/27 06:21:10;;;;;;;11.20;7.95;;;;;;;-2.16;71.20;102865.34;5030431;28;20044;-21
2022/02/27 06:23:35;;;;;;;9.90;8.10;;;;;;;-2.15;71.41;102867.13;5034047;28;20571;-22
2022/02/27 06:26:00;;;;;;;13.65;8.27;;;;;;;-2.14;70.86;102869.84;5035406;28;20036;-22
2022/02/27 06:28:26;;;;;;;9.73;8.57;;;;;;;-2.13;71.30;102865.59;5033840;28;20545;-22
2022/02/27 06:30:51;;;;;;;10.88;8.90;;;;;;;-2.14;70.82;102874.13;5040647;28;20152;-21
2022/02/27 06:33:16;;;;;;;13.57;9.20;;;;;;;-2.12;71.06;102880.31;5031231;28;20052;-22
2022/02/27 06:35:42;;;;;;;14.00;9.07;;;;;;;-2.12;70.90;102877.72;5033869;28;20395;-21
2022/02/27 06:38:07;;;;;;;13.38;8.63;;;;;;;-2.13;71.22;102876.81;5029212;28;20487;-21
2022/02/27 06:40:33;;;;;;;12.55;8.55;;;;;;;-2.12;71.38;102877.72;5029667;28;20032;-20
2022/02/27 06:43:04;;;;;;;12.10;8.25;;;;;;;-2.13;70.71;102878.53;5027256;28;20028;-21
2022/02/27 06:45:29;;;;;;;14.57;8.88;;;;;;;-2.11;71.05;102882.13;5031565;28;20049;-21
2022/02/27 06:47:55;;;;;;;14.45;9.32;;;;;;;-2.10;71.02;102881.34;5030455;28;20170;-21
2022/02/27 06:50:20;;;;;;;13.18;9.60;;;;;;;-2.12;70.91;102889.00;5030550;28;20040;-19
2022/02/27 06:52:46;;;;;;;14.48;9.90;;;;;;;-2.09;70.81;102893.50;5029398;28;20029;-22
2022/02/27 06:55:15;;;;;;;9.82;8.80;;;;;;;-2.09;71.15;102893.50;5033181;28;20022;-21
2022/02/27 06:57:42;;;;;;;10.90;9.07;;;;;;;-2.08;70.75;102892.69;5029186;28;20033;-22
2022/02/27 07:00:09;;;;;;;13.15;9.13;;;;;;;-2.09;71.27;102890.91;5027668;28;20415;-20
2022/02/27 07:02:34;;;;;;;15.02;8.90;;;;;;;-2.07;70.62;102903.16;5026477;28;20037;-21
2022/02/27 07:05:00;;;;;;;11.40;8.93;;;;;;;-2.05;70.91;102903.28;5027552;28;20029;-22
2022/02/27 07:07:25;;;;;;;11.32;8.68;;;;;;;-2.06;70.82;102899.78;5030067;28;20087;-21
2022/02/27 07:09:50;;;;;;;11.77;9.13;;;;;;;-2.04;71.12;102897.34;5030845;28;20036;-20
2022/02/27 07:12:16;;;;;;;14.23;10.07;;;;;;;-2.03;70.74;102896.56;5031029;28;20029;-22
2022/02/27 07:14:42;;;;;;;13.23;9.05;;;;;;;-2.02;70.70;102906.13;5027841;28;20395;-21
2022/02/27 07:17:08;;;;;;;15.00;10.10;;;;;;;-2.00;71.00;102904.53;5030142;28;20029;-21
2022/02/27 07:19:34;;;;;;;18.10;9.65;;;;;;;-1.99;71.13;102915.81;5028621;28;20415;-22
2022/02/27 07:22:00;;;;;;;12.45;9.65;;;;;;;-1.96;71.10;102922.13;5027711;28;20017;-21
2022/02/27 07:24:25;;;;;;;12.13;9.38;;;;;;;-1.96;71.39;102919.53;5029237;28;20029;-22
2022/02/27 07:26:50;;;;;;;14.70;9.93;;;;;;;-1.93;71.34;102926.66;5026381;28;20024;-21
2022/02/27 07:29:16;;;;;;;12.98;9.20;;;;;;;-1.90;71.02;102924.28;5026731;28;20491;-22
2022/02/27 07:31:41;;;;;;;10.13;9.07;;;;;;;-1.87;71.30;102918.47;5029178;28;20070;-22
2022/02/27 07:34:06;;;;;;;12.57;9.50;;;;;;;-1.86;71.03;102923.78;5028584;28;20091;-21
2022/02/27 07:36:33;;;;;;;13.68;9.55;;;;;;;-1.83;71.07;102923.97;5028806;28;20380;-22
2022/02/27 07:38:59;;;;;;;11.15;9.05;;;;;;;-1.78;70.77;102936.38;5029747;28;20359;-22
2022/02/27 07:41:24;;;;;;;14.50;9.88;;;;;;;-1.77;71.28;102923.56;5027595;28;20025;-21
2022/02/27 07:43:49;;;;;;;12.30;9.95;;;;;;;-1.74;71.06;102934.16;5030737;28;20087;-20
2022/02/27 07:46:15;;;;;;;12.65;9.70;;;;;;;-1.71;71.22;102931.81;5028483;28;20038;-22
2022/02/27 07:48:40;;;;;;;11.80;9.82;;;;;;;-1.68;71.17;102928.56;5027908;28;20037;-22
2022/02/27 07:51:06;;;;;;;12.73;10.13;;;;;;;-1.64;71.65;102929.72;5044482;28;20045;-22
2022/02/27 07:53:31;;;;;;;13.35;9.48;;;;;;;-1.62;71.17;102918.69;5032439;28;20030;-22
2022/02/27 07:55:56;;;;;;;11.88;8.85;;;;;;;-1.58;71.29;102925.00;5029419;28;20021;-21
2022/02/27 07:58:22;;;;;;;14.07;9.13;;;;;;;-1.54;71.04;102919.25;5030860;28;20052;-22
2022/02/27 08:00:47;;;;;;;11.70;9.05;;;;;;;-1.50;71.35;102934.25;5027030;28;20392;-22
2022/02/27 08:03:12;;;;;;;14.05;9.07;;;;;;;-1.46;71.24;102925.94;5036222;28;20059;-22
2022/02/27 08:05:40;;;;;;;14.05;9.07;;;;;;;-1.42;71.50;102921.91;5029355;28;20291;-21
2022/02/27 08:08:05;;;;;;;12.50;9.63;;;;;;;-1.38;71.92;102929.13;5035479;28;20056;-22
2022/02/27 08:10:30;;;;;;;12.88;10.05;;;;;;;-1.33;71.43;102926.88;5033226;28;20148;-21
2022/02/27 08:12:56;;;;;;;11.93;9.13;;;;;;;-1.30;71.66;102930.59;5028560;28;20040;-21
2022/02/27 08:15:21;;;;;;;12.02;9.27;;;;;;;-1.25;72.15;102922.28;5029899;28;20040;-22
2022/02/27 08:17:47;;;;;;;15.82;9.80;;;;;;;-1.20;72.31;102937.38;5033746;28;20059;-22
2022/02/27 08:20:13;;;;;;;14.50;10.02;;;;;;;-1.16;72.32;102930.75;5033818;28;20037;-22
2022/02/27 08:22:39;;;;;;;12.38;8.88;;;;;;;-1.10;72.65;102930.31;5039784;28;20025;-22
2022/02/27 08:25:06;;;;;;;14.60;9.60;;;;;;;-1.07;72.55;102920.19;5038342;28;20029;-21
2022/02/27 08:27:31;;;;;;;15.80;10.27;;;;;;;-1.02;72.31;102923.13;5032917;28;20112;-21
2022/02/27 08:29:57;;;;;;;12.98;9.38;;;;;;;-0.99;72.25;102934.63;5032847;28;20098;-22
2022/02/27 08:32:22;;;;;;;13.57;9.27;;;;;;;-0.96;72.31;102929.69;5035272;28;20108;-22
2022/02/27 08:34:47;;;;;;;13.10;8.98;;;;;;;-0.93;71.91;102932.47;5032648;28;20051;-22
2022/02/27 08:37:13;;;;;;;12.52;8.30;;;;;;;-0.87;71.55;102933.75;5033253;28;20036;-22
2022/02/27 08:39:38;;;;;;;12.70;9.35;;;;;;;-0.83;71.42;102934.06;5034263;28;20100;-22
2022/02/27 08:42:04;;;;;;;11.80;9.13;;;;;;;-0.80;71.11;102931.69;5037890;28;20506;-21
2022/02/27 08:44:33;;;;;;;11.68;8.98;;;;;;;-0.73;70.93;102932.16;5032490;28;20391;-22
2022/02/27 08:47:02;;;;;;;14.23;9.93;;;;;;;-0.71;71.19;102931.47;5033454;28;20036;-21
2022/02/27 08:49:27;;;;;;;13.13;9.43;;;;;;;-0.65;71.05;102937.13;5037878;28;20026;-20
2022/02/27 08:51:53;;;;;;;11.90;8.82;;;;;;;-0.60;70.99;102928.78;5032551;28;20021;-21
2022/02/27 08:54:18;;;;;;;13.20;9.13;;;;;;;-0.57;71.00;102932.50;5035888;28;20530;-22
2022/02/27 08:56:43;;;;;;;14.27;9.95;;;;;;;-0.54;70.65;102939.59;5033942;28;20079;-22
2022/02/27 08:59:09;;;;;;;13.70;9.60;;;;;;;-0.50;71.25;102932.97;5031686;28;20025;-22
2022/02/27 09:01:34;;;;;;;11.38;8.95;;;;;;;-0.44;70.79;102936.88;5033372;28;20045;-22
2022/02/27 09:04:00;;;;;;;10.75;9.10;;;;;;;-0.43;70.63;102928.31;5031359;28;20049;-22
2022/02/27 09:06:25;;;;;;;14.77;10.05;;;;;;;-0.35;70.67;102943.53;5033051;28;20029;-21
2022/02/27 09:08:51;;;;;;;12.77;8.73;;;;;;;-0.32;71.07;102951.53;5035254;28;20067;-22
2022/02/27 09:11:16;;;;;;;12.25;8.70;;;;;;;-0.28;70.85;102943.19;5035563;28;20022;-22
2022/02/27 09:13:42;;;;;;;11.95;9.00;;;;;;;-0.24;70.72;102947.81;5030637;28;20040;-22
2022/02/27 09:16:07;;;;;;;12.20;8.93;;;;;;;-0.18;71.06;102950.84;5035143;28;20433;-23
2022/02/27 09:18:33;;;;;;;12.20;8.85;;;;;;;-0.13;71.33;102958.97;5034402;28;20061;-21
2022/02/27 09:20:58;;;;;;;12.48;9.70;;;;;;;-0.08;70.85;102943.72;5031959;28;20720;-22
2022/02/27 09:23:24;;;;;;;14.40;10.38;;;;;;;-0.06;70.98;102950.84;5032954;28;20099;-21
2022/02/27 09:25:49;;;;;;;15.52;10.88;;;;;;;-0.01;71.36;102944.28;5030171;28;20112;-22
2022/02/27 09:28:14;;;;;;;14.32;9.85;;;;;;;0.05;70.73;102949.00;5028185;28;20033;-21
2022/02/27 09:30:40;;;;;;;11.75;9.50;;;;;;;0.09;70.63;102950.09;5031399;28;20277;-19
2022/02/27 09:33:05;;;;;;;11.73;8.88;;;;;;;0.14;70.81;102958.22;5044617;28;20488;-22
2022/02/27 09:35:30;;;;;;;12.07;9.63;;;;;;;0.19;70.81;102954.25;5038937;28;20026;-22
2022/02/27 09:37:57;;;;;;;14.48;10.25;;;;;;;0.22;71.29;102957.06;5037544;28;20025;-22
2022/02/27 09:40:24;;;;;;;12.65;9.65;;;;;;;0.28;71.02;102956.59;5038223;28;20029;-22
2022/02/27 09:42:50;;;;;;;13.70;10.13;;;;;;;0.31;70.77;102944.75;5040164;28;20025;-22
2022/02/27 09:45:15;;;;;;;12.52;9.57;;;;;;;0.38;70.75;102946.97;5032837;28;20062;-22
2022/02/27 09:47:41;;;;;;;11.70;9.38;;;;;;;0.41;71.06;102948.88;5034152;28;20051;-22
2022/02/27 09:50:07;;;;;;;14.25;10.07;;;;;;;0.43;70.85;102944.69;5046579;28;20511;-22
2022/02/27 09:52:32;;;;;;;10.77;9.20;;;;;;;0.51;70.54;102945.22;5028073;28;20438;-22
2022/02/27 09:54:58;;;;;;;13.18;9.50;;;;;;;0.54;70.82;102945.44;5013029;28;20036;-21
2022/02/27 09:57:23;;;;;;;12.43;9.02;;;;;;;0.59;70.93;102949.25;5032498;28;20025;-21
2022/02/27 09:59:49;;;;;;;14.23;10.00;;;;;;;0.63;70.59;102946.06;5029047;28;20031;-21
2022/02/27 10:02:15;;;;;;;14.27;10.00;;;;;;;0.69;70.74;102949.88;5032269;28;20459;-22
2022/02/27 10:04:42;;;;;;;13.35;9.73;;;;;;;0.72;70.37;102943.22;5029995;28;20043;-22
2022/02/27 10:07:12;;;;;;;13.02;8.90;;;;;;;0.78;70.50;102955.72;5029727;28;20065;-22
2022/02/27 10:09:39;;;;;;;14.82;9.88;;;;;;;0.81;70.60;102952.41;5028255;28;20458;-22
2022/02/27 10:12:20;;;;;;;14.55;10.30;;;;;;;0.86;70.35;102944.13;5010275;28;20507;-21
2022/02/27 10:14:58;;;;;;;14.60;10.48;;;;;;;0.91;70.64;102951.34;5024395;28;20379;-22
2022/02/27 10:17:29;;;;;;;11.93;9.52;;;;;;;0.95;70.73;102943.88;5028174;28;20479;-22
2022/02/27 10:19:54;;;;;;;12.65;10.05;;;;;;;1.01;70.41;102940.78;5011986;28;20029;-22
2022/02/27 10:22:28;;;;;;;12.63;10.00;;;;;;;1.04;70.80;102948.78;5025629;28;20381;-22
2022/02/27 10:24:53;;;;;;;14.32;10.00;;;;;;;1.09;70.69;102946.47;5029116;28;20022;-19
2022/02/27 10:27:21;;;;;;;15.73;10.15;;;;;;;1.12;70.56;102942.41;5027251;28;20033;-22
2022/02/27 10:29:46;;;;;;;13.20;9.98;;;;;;;1.18;70.58;102941.91;5028109;28;20108;-22
2022/02/27 10:32:12;;;;;;;12.82;9.80;;;;;;;1.21;70.85;102943.81;5023116;28;20095;-22
2022/02/27 10:34:37;;;;;;;14.18;10.35;;;;;;;1.28;70.72;102943.41;5026596;28;20037;-22
2022/02/27 10:37:04;;;;;;;14.13;10.85;;;;;;;1.34;70.68;102941.22;5027559;28;20103;-21
2022/02/27 10:39:35;;;;;;;15.63;11.20;;;;;;;1.38;70.79;102940.63;5027915;28;20182;-21
2022/02/27 10:42:06;;;;;;;15.38;10.55;;;;;;;1.48;70.75;102938.59;5027972;28;20028;-21
2022/02/27 10:44:32;;;;;;;;;;;;;;;1.56;70.42;102933.91;5027347;28;20076;-22
2022/02/27 10:47:12;;;;;;;14.30;10.00;;;;;;;1.64;70.66;102928.38;5027378;28;19995;-22
2022/02/27 10:49:37;;;;;;;16.90;10.65;;;;;;;1.72;70.67;102922.78;5029068;28;20029;-22
2022/02/27 10:52:16;;;;;;;15.18;10.27;;;;;;;1.78;70.34;102920.56;5024831;28;20031;-22
2022/02/27 10:54:48;;;;;;;15.00;10.32;;;;;;;1.92;70.44;102918.84;5025190;28;20194;-22
2022/02/27 10:57:27;;;;;;;15.18;10.10;;;;;;;2.03;70.15;102916.91;5027948;28;20026;-22
2022/02/27 10:59:54;;;;;;;15.30;10.48;;;;;;;2.12;70.67;102912.28;5027247;28;20033;-22
2022/02/27 11:02:20;;;;;;;14.07;11.57;;;;;;;2.23;70.22;102899.91;5023590;28;20024;-22
2022/02/27 11:04:47;;;;;;;13.32;10.70;;;;;;;2.35;70.54;102904.97;5026920;28;20538;-22
2022/02/27 11:07:13;;;;;;;12.35;11.05;;;;;;;2.47;70.33;102903.94;5028544;28;20048;-22
2022/02/27 11:09:38;;;;;;;12.45;11.15;;;;;;;2.56;70.51;102902.78;5012107;28;20451;-22
2022/02/27 11:12:04;;;;;;;18.35;12.00;;;;;;;2.68;70.94;102900.03;5026971;28;20047;-22